sensor_id;sensor_type;location;lat;lon;timestamp;temperature;humidity
5128;DHT22;2582;48.770;9.190;2024-01-15T00:02:17;0.90;99.90
5128;DHT22;2582;48.770;9.190;2024-01-15T00:04:43;1.20;99.90
5128;DHT22;2582;48.770;9.190;2024-01-15T00:07:09;1.20;99.90
5128;DHT22;2582;48.770;9.190;2024-01-15T00:09:35;1.40;99.90
5128;DHT22;2582;48.770;9.190;2024-01-15T00:12:01;1.30;99.90
5128;DHT22;2582;48.770;9.190;2024-01-15T00:14:27;1.20;99.90
5128;DHT22;2582;48.770;9.190;2024-01-15T00:16:53;1.30;99.90
5128;DHT22;2582;48.770;9.190;2024-01-15T00:19:23;1.50;99.90
5128;DHT22;2582;48.770;9.190;2024-01-15T00:21:49;1.60;99.90
5128;DHT22;2582;48.770;9.190;2024-01-15T00:24:15;1.60;99.90
5128;DHT22;2582;48.770;9.190;2024-01-15T00:26:41;1.30;99.90
5128;DHT22;2582;48.770;9.190;2024-01-15T00:29:07;1.20;99.90
5128;DHT22;2582;48.770;9.190;2024-01-15T00:31:33;1.10;99.90
5128;DHT22;2582;48.770;9.190;2024-01-15T00:33:59;0.90;99.90
5128;DHT22;2582;48.770;9.190;2024-01-15T00:36:25;0.90;99.90
5128;DHT22;2582;48.770;9.190;2024-01-15T00:38:51;0.90;99.90
5128;DHT22;2582;48.770;9.190;2024-01-15T00:41:17;1.00;99.90
5128;DHT22;2582;48.770;9.190;2024-01-15T00:43:46;0.80;99.90
5128;DHT22;2582;48.770;9.190;2024-01-15T00:46:14;0.80;99.90
5128;DHT22;2582;48.770;9.190;2024-01-15T00:48:40;0.80;99.90
5128;DHT22;2582;48.770;9.190;2024-01-15T00:51:05;0.70;99.90
5128;DHT22;2582;48.770;9.190;2024-01-15T00:53:31;0.70;99.90
5128;DHT22;2582;48.770;9.190;2024-01-15T00:55:57;0.70;99.90
5128;DHT22;2582;48.770;9.190;2024-01-15T00:58:22;0.70;99.90
5128;DHT22;2582;48.770;9.190;2024-01-15T01:00:48;0.60;99.90
5128;DHT22;2582;48.770;9.190;2024-01-15T01:03:13;0.60;99.90
5128;DHT22;2582;48.770;9.190;2024-01-15T01:05:39;0.60;99.90
5128;DHT22;2582;48.770;9.190;2024-01-15T01:08:05;0.60;99.90
5128;DHT22;2582;48.770;9.190;2024-01-15T01:10:30;0.70;99.90
5128;DHT22;2582;48.770;9.190;2024-01-15T01:12:56;0.80;99.90
5128;DHT22;2582;48.770;9.190;2024-01-15T01:15:22;0.80;99.90
5128;DHT22;2582;48.770;9.190;2024-01-15T01:17:47;0.80;99.90
5128;DHT22;2582;48.770;9.190;2024-01-15T01:20:13;0.90;99.90
5128;DHT22;2582;48.770;9.190;2024-01-15T01:22:40;0.90;99.90
5128;DHT22;2582;48.770;9.190;2024-01-15T01:25:06;1.00;99.90
5128;DHT22;2582;48.770;9.190;2024-01-15T01:27:32;0.90;99.90
5128;DHT22;2582;48.770;9.190;2024-01-15T01:29:57;0.90;99.90
5128;DHT22;2582;48.770;9.190;2024-01-15T01:32:23;0.90;99.90
5128;DHT22;2582;48.770;9.190;2024-01-15T01:34:49;0.90;99.90
5128;DHT22;2582;48.770;9.190;2024-01-15T01:37:14;0.90;99.90
5128;DHT22;2582;48.770;9.190;2024-01-15T01:39:41;1.20;99.90
5128;DHT22;2582;48.770;9.190;2024-01-15T01:42:07;1.10;99.90
5128;DHT22;2582;48.770;9.190;2024-01-15T01:44:33;1.00;99.90
5128;DHT22;2582;48.770;9.190;2024-01-15T01:47:00;1.10;99.90
5128;DHT22;2582;48.770;9.190;2024-01-15T01:49:26;1.20;99.90
5128;DHT22;2582;48.770;9.190;2024-01-15T01:51:53;1.20;99.90
5128;DHT22;2582;48.770;9.190;2024-01-15T01:54:20;1.30;99.90
5128;DHT22;2582;48.770;9.190;2024-01-15T01:56:47;1.20;99.90
5128;DHT22;2582;48.770;9.190;2024-01-15T01:59:13;1.30;99.90
5128;DHT22;2582;48.770;9.190;2024-01-15T02:01:40;1.50;99.90
5128;DHT22;2582;48.770;9.190;2024-01-15T02:04:06;1.70;99.90
5128;DHT22;2582;48.770;9.190;2024-01-15T02:06:31;1.70;99.90
5128;DHT22;2582;48.770;9.190;2024-01-15T02:08:57;1.30;99.90
5128;DHT22;2582;48.770;9.190;2024-01-15T02:11:23;1.30;99.90
5128;DHT22;2582;48.770;9.190;2024-01-15T02:13:48;1.20;99.90
5128;DHT22;2582;48.770;9.190;2024-01-15T02:16:14;1.40;99.90
5128;DHT22;2582;48.770;9.190;2024-01-15T02:18:44;1.30;99.90
5128;DHT22;2582;48.770;9.190;2024-01-15T02:21:10;1.30;99.90
5128;DHT22;2582;48.770;9.190;2024-01-15T02:23:36;1.30;99.90
5128;DHT22;2582;48.770;9.190;2024-01-15T02:26:02;1.10;99.90
5128;DHT22;2582;48.770;9.190;2024-01-15T02:28:29;1.10;99.90
5128;DHT22;2582;48.770;9.190;2024-01-15T02:30:54;1.10;99.90
5128;DHT22;2582;48.770;9.190;2024-01-15T02:33:20;1.10;99.90
5128;DHT22;2582;48.770;9.190;2024-01-15T02:35:45;1.10;99.90
5128;DHT22;2582;48.770;9.190;2024-01-15T02:38:16;1.00;99.90
5128;DHT22;2582;48.770;9.190;2024-01-15T02:40:42;1.10;99.90
5128;DHT22;2582;48.770;9.190;2024-01-15T02:43:08;1.30;99.90
5128;DHT22;2582;48.770;9.190;2024-01-15T02:45:34;1.20;99.90
5128;DHT22;2582;48.770;9.190;2024-01-15T02:47:59;1.10;99.90
5128;DHT22;2582;48.770;9.190;2024-01-15T02:50:25;1.00;99.90
5128;DHT22;2582;48.770;9.190;2024-01-15T02:52:51;1.20;99.90
5128;DHT22;2582;48.770;9.190;2024-01-15T02:55:16;1.20;99.90
5128;DHT22;2582;48.770;9.190;2024-01-15T02:57:42;1.00;99.90
5128;DHT22;2582;48.770;9.190;2024-01-15T03:00:08;1.10;99.90
5128;DHT22;2582;48.770;9.190;2024-01-15T03:02:37;1.10;99.90
5128;DHT22;2582;48.770;9.190;2024-01-15T03:05:05;1.10;99.90
5128;DHT22;2582;48.770;9.190;2024-01-15T03:07:31;1.10;99.90
5128;DHT22;2582;48.770;9.190;2024-01-15T03:09:57;1.00;99.90
5128;DHT22;2582;48.770;9.190;2024-01-15T03:12:22;1.00;99.90
5128;DHT22;2582;48.770;9.190;2024-01-15T03:14:48;0.90;99.90
5128;DHT22;2582;48.770;9.190;2024-01-15T03:17:14;1.10;99.90
5128;DHT22;2582;48.770;9.190;2024-01-15T03:19:39;1.10;99.90
5128;DHT22;2582;48.770;9.190;2024-01-15T03:22:06;1.10;99.90
5128;DHT22;2582;48.770;9.190;2024-01-15T03:24:33;1.10;99.90
5128;DHT22;2582;48.770;9.190;2024-01-15T03:26:59;1.00;99.90
5128;DHT22;2582;48.770;9.190;2024-01-15T03:29:26;0.90;99.90
5128;DHT22;2582;48.770;9.190;2024-01-15T03:31:51;1.00;99.90
5128;DHT22;2582;48.770;9.190;2024-01-15T03:34:17;1.10;99.90
5128;DHT22;2582;48.770;9.190;2024-01-15T03:36:43;1.20;99.90
5128;DHT22;2582;48.770;9.190;2024-01-15T03:39:08;1.10;99.90
5128;DHT22;2582;48.770;9.190;2024-01-15T03:41:34;1.10;99.90
5128;DHT22;2582;48.770;9.190;2024-01-15T03:44:00;1.20;99.90
5128;DHT22;2582;48.770;9.190;2024-01-15T03:46:25;1.20;99.90
5128;DHT22;2582;48.770;9.190;2024-01-15T03:48:51;1.10;99.90
5128;DHT22;2582;48.770;9.190;2024-01-15T03:51:17;1.10;99.90
5128;DHT22;2582;48.770;9.190;2024-01-15T03:53:43;1.10;99.90
5128;DHT22;2582;48.770;9.190;2024-01-15T03:56:09;1.10;99.90
5128;DHT22;2582;48.770;9.190;2024-01-15T03:58:35;1.20;99.90
5128;DHT22;2582;48.770;9.190;2024-01-15T04:01:00;1.30;99.90
5128;DHT22;2582;48.770;9.190;2024-01-15T04:03:26;1.20;99.90
5128;DHT22;2582;48.770;9.190;2024-01-15T04:05:51;1.20;99.90
5128;DHT22;2582;48.770;9.190;2024-01-15T04:08:17;1.30;99.90
5128;DHT22;2582;48.770;9.190;2024-01-15T04:10:42;1.20;99.90
5128;DHT22;2582;48.770;9.190;2024-01-15T04:13:08;1.10;99.90
5128;DHT22;2582;48.770;9.190;2024-01-15T04:15:33;1.10;99.90
5128;DHT22;2582;48.770;9.190;2024-01-15T04:17:59;1.20;99.90
5128;DHT22;2582;48.770;9.190;2024-01-15T04:20:26;1.40;99.90
5128;DHT22;2582;48.770;9.190;2024-01-15T04:22:52;1.40;99.90
5128;DHT22;2582;48.770;9.190;2024-01-15T04:25:17;1.50;99.90
5128;DHT22;2582;48.770;9.190;2024-01-15T04:27:43;1.40;99.90
5128;DHT22;2582;48.770;9.190;2024-01-15T04:30:09;1.50;99.90
5128;DHT22;2582;48.770;9.190;2024-01-15T04:32:34;1.40;99.90
5128;DHT22;2582;48.770;9.190;2024-01-15T04:35:00;1.50;99.90
5128;DHT22;2582;48.770;9.190;2024-01-15T04:37:26;1.40;99.90
5128;DHT22;2582;48.770;9.190;2024-01-15T04:39:51;1.50;99.90
5128;DHT22;2582;48.770;9.190;2024-01-15T04:42:23;1.50;99.90
5128;DHT22;2582;48.770;9.190;2024-01-15T04:44:48;1.50;99.90
5128;DHT22;2582;48.770;9.190;2024-01-15T04:47:14;1.50;99.90
5128;DHT22;2582;48.770;9.190;2024-01-15T04:49:40;1.50;99.90
5128;DHT22;2582;48.770;9.190;2024-01-15T04:52:05;1.60;99.90
5128;DHT22;2582;48.770;9.190;2024-01-15T04:54:31;1.70;99.90
5128;DHT22;2582;48.770;9.190;2024-01-15T04:56:56;1.60;99.90
5128;DHT22;2582;48.770;9.190;2024-01-15T04:59:22;1.60;99.90
5128;DHT22;2582;48.770;9.190;2024-01-15T05:01:48;1.60;99.90
5128;DHT22;2582;48.770;9.190;2024-01-15T05:04:14;1.60;99.90
5128;DHT22;2582;48.770;9.190;2024-01-15T05:06:40;1.60;99.90
5128;DHT22;2582;48.770;9.190;2024-01-15T05:09:05;1.60;99.90
5128;DHT22;2582;48.770;9.190;2024-01-15T05:11:31;1.70;99.90
5128;DHT22;2582;48.770;9.190;2024-01-15T05:13:56;1.80;99.90
5128;DHT22;2582;48.770;9.190;2024-01-15T05:16:22;1.70;99.90
5128;DHT22;2582;48.770;9.190;2024-01-15T05:18:48;1.70;99.90
5128;DHT22;2582;48.770;9.190;2024-01-15T05:21:13;1.70;99.90
5128;DHT22;2582;48.770;9.190;2024-01-15T05:23:39;1.80;99.90
5128;DHT22;2582;48.770;9.190;2024-01-15T05:26:04;1.70;99.90
5128;DHT22;2582;48.770;9.190;2024-01-15T05:28:30;1.70;99.90
5128;DHT22;2582;48.770;9.190;2024-01-15T05:30:55;1.60;99.90
5128;DHT22;2582;48.770;9.190;2024-01-15T05:33:24;1.60;99.90
5128;DHT22;2582;48.770;9.190;2024-01-15T05:35:50;1.70;99.90
5128;DHT22;2582;48.770;9.190;2024-01-15T05:38:16;1.60;99.90
5128;DHT22;2582;48.770;9.190;2024-01-15T05:40:42;1.70;99.90
5128;DHT22;2582;48.770;9.190;2024-01-15T05:43:08;1.80;99.90
5128;DHT22;2582;48.770;9.190;2024-01-15T05:45:35;1.80;99.90
5128;DHT22;2582;48.770;9.190;2024-01-15T05:48:03;1.90;99.90
5128;DHT22;2582;48.770;9.190;2024-01-15T05:50:29;1.90;99.90
5128;DHT22;2582;48.770;9.190;2024-01-15T05:52:55;2.00;99.90
5128;DHT22;2582;48.770;9.190;2024-01-15T05:55:20;2.00;99.90
5128;DHT22;2582;48.770;9.190;2024-01-15T05:57:46;1.90;99.90
5128;DHT22;2582;48.770;9.190;2024-01-15T06:00:12;1.90;99.90
5128;DHT22;2582;48.770;9.190;2024-01-15T06:02:38;2.00;99.90
5128;DHT22;2582;48.770;9.190;2024-01-15T06:05:04;2.00;99.90
5128;DHT22;2582;48.770;9.190;2024-01-15T06:07:29;1.90;99.90
5128;DHT22;2582;48.770;9.190;2024-01-15T06:09:55;1.90;99.90
5128;DHT22;2582;48.770;9.190;2024-01-15T06:12:22;2.00;99.90
5128;DHT22;2582;48.770;9.190;2024-01-15T06:14:48;1.90;99.90
5128;DHT22;2582;48.770;9.190;2024-01-15T06:17:13;2.00;99.90
5128;DHT22;2582;48.770;9.190;2024-01-15T06:19:39;1.90;99.90
5128;DHT22;2582;48.770;9.190;2024-01-15T06:22:05;1.90;99.90
5128;DHT22;2582;48.770;9.190;2024-01-15T06:24:30;2.00;99.90
5128;DHT22;2582;48.770;9.190;2024-01-15T06:26:56;2.10;99.90
5128;DHT22;2582;48.770;9.190;2024-01-15T06:29:21;2.00;99.90
5128;DHT22;2582;48.770;9.190;2024-01-15T06:31:47;2.00;99.90
5128;DHT22;2582;48.770;9.190;2024-01-15T06:34:12;2.10;99.90
5128;DHT22;2582;48.770;9.190;2024-01-15T06:36:38;2.20;99.90
5128;DHT22;2582;48.770;9.190;2024-01-15T06:39:04;2.00;99.90
5128;DHT22;2582;48.770;9.190;2024-01-15T06:41:30;2.10;99.90
5128;DHT22;2582;48.770;9.190;2024-01-15T06:43:56;2.00;99.90
5128;DHT22;2582;48.770;9.190;2024-01-15T06:46:22;1.90;99.90
5128;DHT22;2582;48.770;9.190;2024-01-15T06:48:48;2.00;99.90
5128;DHT22;2582;48.770;9.190;2024-01-15T06:51:14;2.10;99.90
5128;DHT22;2582;48.770;9.190;2024-01-15T06:53:39;2.10;99.90
5128;DHT22;2582;48.770;9.190;2024-01-15T06:56:05;2.00;99.90
5128;DHT22;2582;48.770;9.190;2024-01-15T06:58:31;2.10;99.90
5128;DHT22;2582;48.770;9.190;2024-01-15T07:00:57;2.10;99.90
5128;DHT22;2582;48.770;9.190;2024-01-15T07:03:23;2.00;99.90
5128;DHT22;2582;48.770;9.190;2024-01-15T07:05:49;2.10;99.90
5128;DHT22;2582;48.770;9.190;2024-01-15T07:08:14;2.00;99.90
5128;DHT22;2582;48.770;9.190;2024-01-15T07:10:40;2.00;99.90
5128;DHT22;2582;48.770;9.190;2024-01-15T07:13:05;2.10;99.90
5128;DHT22;2582;48.770;9.190;2024-01-15T07:15:31;2.00;99.90
5128;DHT22;2582;48.770;9.190;2024-01-15T07:17:56;2.00;99.90
5128;DHT22;2582;48.770;9.190;2024-01-15T07:20:22;2.00;99.90
5128;DHT22;2582;48.770;9.190;2024-01-15T07:22:48;2.10;99.90
5128;DHT22;2582;48.770;9.190;2024-01-15T07:25:13;2.00;99.90
5128;DHT22;2582;48.770;9.190;2024-01-15T07:27:39;2.00;99.90
5128;DHT22;2582;48.770;9.190;2024-01-15T07:30:05;2.10;99.90
5128;DHT22;2582;48.770;9.190;2024-01-15T07:32:31;2.00;99.90
5128;DHT22;2582;48.770;9.190;2024-01-15T07:34:57;2.00;99.90
5128;DHT22;2582;48.770;9.190;2024-01-15T07:37:24;1.90;99.90
5128;DHT22;2582;48.770;9.190;2024-01-15T07:39:50;2.10;99.90
5128;DHT22;2582;48.770;9.190;2024-01-15T07:42:16;2.10;99.90
5128;DHT22;2582;48.770;9.190;2024-01-15T07:44:41;2.10;99.90
5128;DHT22;2582;48.770;9.190;2024-01-15T07:47:07;2.20;99.90
5128;DHT22;2582;48.770;9.190;2024-01-15T07:49:34;2.10;99.90
5128;DHT22;2582;48.770;9.190;2024-01-15T07:52:00;2.00;99.90
5128;DHT22;2582;48.770;9.190;2024-01-15T07:54:26;2.00;99.90
5128;DHT22;2582;48.770;9.190;2024-01-15T07:56:59;2.10;99.90
5128;DHT22;2582;48.770;9.190;2024-01-15T07:59:26;2.00;99.90
5128;DHT22;2582;48.770;9.190;2024-01-15T08:01:52;2.00;99.90
5128;DHT22;2582;48.770;9.190;2024-01-15T08:04:19;2.00;99.90
5128;DHT22;2582;48.770;9.190;2024-01-15T08:06:44;2.10;99.90
5128;DHT22;2582;48.770;9.190;2024-01-15T08:09:10;2.10;99.90
5128;DHT22;2582;48.770;9.190;2024-01-15T08:11:36;2.20;99.90
5128;DHT22;2582;48.770;9.190;2024-01-15T08:14:02;2.20;99.90
5128;DHT22;2582;48.770;9.190;2024-01-15T08:16:27;2.10;99.90
5128;DHT22;2582;48.770;9.190;2024-01-15T08:18:53;2.20;99.90
5128;DHT22;2582;48.770;9.190;2024-01-15T08:21:19;2.30;99.90
5128;DHT22;2582;48.770;9.190;2024-01-15T08:23:44;2.30;99.90
5128;DHT22;2582;48.770;9.190;2024-01-15T08:26:10;2.30;99.90
5128;DHT22;2582;48.770;9.190;2024-01-15T08:28:36;2.20;99.90
5128;DHT22;2582;48.770;9.190;2024-01-15T08:31:02;2.20;99.90
5128;DHT22;2582;48.770;9.190;2024-01-15T08:33:28;2.20;99.90
5128;DHT22;2582;48.770;9.190;2024-01-15T08:35:54;2.30;99.90
5128;DHT22;2582;48.770;9.190;2024-01-15T08:38:20;2.40;99.90
5128;DHT22;2582;48.770;9.190;2024-01-15T08:40:45;2.30;99.90
5128;DHT22;2582;48.770;9.190;2024-01-15T08:43:11;2.40;99.90
5128;DHT22;2582;48.770;9.190;2024-01-15T08:45:36;2.50;99.90
5128;DHT22;2582;48.770;9.190;2024-01-15T08:48:02;2.50;99.90
5128;DHT22;2582;48.770;9.190;2024-01-15T08:50:29;2.70;99.90
5128;DHT22;2582;48.770;9.190;2024-01-15T08:52:55;2.90;99.90
5128;DHT22;2582;48.770;9.190;2024-01-15T08:55:21;2.90;99.90
5128;DHT22;2582;48.770;9.190;2024-01-15T08:57:48;2.90;99.90
5128;DHT22;2582;48.770;9.190;2024-01-15T09:00:14;2.90;99.90
5128;DHT22;2582;48.770;9.190;2024-01-15T09:02:40;3.00;99.90
5128;DHT22;2582;48.770;9.190;2024-01-15T09:05:05;3.00;99.90
5128;DHT22;2582;48.770;9.190;2024-01-15T09:07:32;2.90;99.90
5128;DHT22;2582;48.770;9.190;2024-01-15T09:09:58;3.00;99.90
5128;DHT22;2582;48.770;9.190;2024-01-15T09:12:25;3.10;99.90
5128;DHT22;2582;48.770;9.190;2024-01-15T09:14:51;3.20;99.90
5128;DHT22;2582;48.770;9.190;2024-01-15T09:17:17;3.30;99.90
5128;DHT22;2582;48.770;9.190;2024-01-15T09:19:43;3.40;99.90
5128;DHT22;2582;48.770;9.190;2024-01-15T09:22:09;3.30;99.90
5128;DHT22;2582;48.770;9.190;2024-01-15T09:24:35;3.20;99.90
5128;DHT22;2582;48.770;9.190;2024-01-15T09:27:01;3.20;99.90
5128;DHT22;2582;48.770;9.190;2024-01-15T09:29:28;3.20;99.90
5128;DHT22;2582;48.770;9.190;2024-01-15T09:31:54;3.30;99.90
5128;DHT22;2582;48.770;9.190;2024-01-15T09:34:19;3.10;99.90
5128;DHT22;2582;48.770;9.190;2024-01-15T09:36:45;3.20;99.90
5128;DHT22;2582;48.770;9.190;2024-01-15T09:39:10;3.40;99.90
5128;DHT22;2582;48.770;9.190;2024-01-15T09:41:39;3.40;99.90
5128;DHT22;2582;48.770;9.190;2024-01-15T09:44:05;3.50;99.90
5128;DHT22;2582;48.770;9.190;2024-01-15T09:46:33;3.40;99.90
5128;DHT22;2582;48.770;9.190;2024-01-15T09:49:00;3.30;99.90
5128;DHT22;2582;48.770;9.190;2024-01-15T09:51:28;3.30;99.90
5128;DHT22;2582;48.770;9.190;2024-01-15T09:53:57;3.40;99.90
5128;DHT22;2582;48.770;9.190;2024-01-15T09:56:23;3.50;99.90
5128;DHT22;2582;48.770;9.190;2024-01-15T09:58:49;3.40;99.90
5128;DHT22;2582;48.770;9.190;2024-01-15T10:01:17;3.30;99.90
5128;DHT22;2582;48.770;9.190;2024-01-15T10:03:43;3.40;99.90
5128;DHT22;2582;48.770;9.190;2024-01-15T10:06:09;3.20;99.90
5128;DHT22;2582;48.770;9.190;2024-01-15T10:08:37;3.20;99.90
5128;DHT22;2582;48.770;9.190;2024-01-15T10:11:02;3.20;99.90
5128;DHT22;2582;48.770;9.190;2024-01-15T10:13:30;3.10;99.90
5128;DHT22;2582;48.770;9.190;2024-01-15T10:15:56;3.10;99.90
5128;DHT22;2582;48.770;9.190;2024-01-15T10:18:23;3.10;99.90
5128;DHT22;2582;48.770;9.190;2024-01-15T10:20:49;3.10;99.90
5128;DHT22;2582;48.770;9.190;2024-01-15T10:23:15;3.20;99.90
5128;DHT22;2582;48.770;9.190;2024-01-15T10:25:42;3.10;99.90
5128;DHT22;2582;48.770;9.190;2024-01-15T10:28:08;3.20;99.90
5128;DHT22;2582;48.770;9.190;2024-01-15T10:30:34;3.30;99.90
5128;DHT22;2582;48.770;9.190;2024-01-15T10:33:03;3.30;99.90
5128;DHT22;2582;48.770;9.190;2024-01-15T10:35:29;3.40;99.90
5128;DHT22;2582;48.770;9.190;2024-01-15T10:37:55;3.50;99.90
5128;DHT22;2582;48.770;9.190;2024-01-15T10:40:21;3.30;99.90
5128;DHT22;2582;48.770;9.190;2024-01-15T10:42:47;3.30;99.90
5128;DHT22;2582;48.770;9.190;2024-01-15T10:45:13;3.40;99.90
5128;DHT22;2582;48.770;9.190;2024-01-15T10:47:42;3.30;99.90
5128;DHT22;2582;48.770;9.190;2024-01-15T10:50:09;3.40;99.90
5128;DHT22;2582;48.770;9.190;2024-01-15T10:52:36;3.50;99.90
5128;DHT22;2582;48.770;9.190;2024-01-15T10:55:03;3.50;99.90
5128;DHT22;2582;48.770;9.190;2024-01-15T10:57:30;3.50;99.90
5128;DHT22;2582;48.770;9.190;2024-01-15T10:59:56;3.50;99.90
5128;DHT22;2582;48.770;9.190;2024-01-15T11:02:22;3.40;99.90
5128;DHT22;2582;48.770;9.190;2024-01-15T11:04:47;3.60;99.90
5128;DHT22;2582;48.770;9.190;2024-01-15T11:07:14;3.60;99.90
5128;DHT22;2582;48.770;9.190;2024-01-15T11:09:40;3.60;99.90
5128;DHT22;2582;48.770;9.190;2024-01-15T11:12:13;3.70;99.90
5128;DHT22;2582;48.770;9.190;2024-01-15T11:14:45;3.60;99.90
5128;DHT22;2582;48.770;9.190;2024-01-15T11:17:12;3.80;99.90
5128;DHT22;2582;48.770;9.190;2024-01-15T11:19:42;3.90;99.90
5128;DHT22;2582;48.770;9.190;2024-01-15T11:22:09;3.90;99.90
5128;DHT22;2582;48.770;9.190;2024-01-15T11:24:38;3.70;99.90
5128;DHT22;2582;48.770;9.190;2024-01-15T11:27:05;3.60;99.90
5128;DHT22;2582;48.770;9.190;2024-01-15T11:29:35;3.40;99.90
5128;DHT22;2582;48.770;9.190;2024-01-15T11:32:08;3.50;99.90
5128;DHT22;2582;48.770;9.190;2024-01-15T11:34:56;3.70;99.90
5128;DHT22;2582;48.770;9.190;2024-01-15T11:37:28;3.90;99.90
5128;DHT22;2582;48.770;9.190;2024-01-15T11:39:56;3.90;99.90
5128;DHT22;2582;48.770;9.190;2024-01-15T11:42:25;3.80;99.90
5128;DHT22;2582;48.770;9.190;2024-01-15T11:44:53;3.60;99.90
5128;DHT22;2582;48.770;9.190;2024-01-15T11:50:17;3.50;99.90
5128;DHT22;2582;48.770;9.190;2024-01-15T11:52:51;3.40;99.90
5128;DHT22;2582;48.770;9.190;2024-01-15T11:55:34;3.30;99.90
5128;DHT22;2582;48.770;9.190;2024-01-15T11:58:07;3.30;99.90
5128;DHT22;2582;48.770;9.190;2024-01-15T12:00:33;3.50;99.90
5128;DHT22;2582;48.770;9.190;2024-01-15T12:02:59;3.40;99.90
5128;DHT22;2582;48.770;9.190;2024-01-15T12:05:24;3.40;99.90
5128;DHT22;2582;48.770;9.190;2024-01-15T12:07:50;3.30;99.90
5128;DHT22;2582;48.770;9.190;2024-01-15T12:10:20;3.40;99.90
5128;DHT22;2582;48.770;9.190;2024-01-15T12:15:47;3.70;99.90
5128;DHT22;2582;48.770;9.190;2024-01-15T12:18:15;3.70;99.90
5128;DHT22;2582;48.770;9.190;2024-01-15T12:20:41;3.50;99.90
5128;DHT22;2582;48.770;9.190;2024-01-15T12:23:08;3.40;99.90
5128;DHT22;2582;48.770;9.190;2024-01-15T12:25:34;3.30;99.90
5128;DHT22;2582;48.770;9.190;2024-01-15T12:28:00;3.00;99.90
5128;DHT22;2582;48.770;9.190;2024-01-15T12:30:27;2.90;99.90
5128;DHT22;2582;48.770;9.190;2024-01-15T12:32:54;2.70;99.90
5128;DHT22;2582;48.770;9.190;2024-01-15T12:35:20;2.80;99.90
5128;DHT22;2582;48.770;9.190;2024-01-15T12:37:46;2.80;99.90
5128;DHT22;2582;48.770;9.190;2024-01-15T12:40:13;2.50;99.90
5128;DHT22;2582;48.770;9.190;2024-01-15T12:42:40;2.50;99.90
5128;DHT22;2582;48.770;9.190;2024-01-15T12:45:06;2.60;99.90
5128;DHT22;2582;48.770;9.190;2024-01-15T12:47:32;2.60;99.90
5128;DHT22;2582;48.770;9.190;2024-01-15T12:49:58;2.60;99.90
5128;DHT22;2582;48.770;9.190;2024-01-15T12:52:27;2.60;99.90
5128;DHT22;2582;48.770;9.190;2024-01-15T12:54:53;2.60;99.90
5128;DHT22;2582;48.770;9.190;2024-01-15T12:57:19;2.50;99.90
5128;DHT22;2582;48.770;9.190;2024-01-15T12:59:45;2.30;99.90
5128;DHT22;2582;48.770;9.190;2024-01-15T13:02:14;2.50;99.90
5128;DHT22;2582;48.770;9.190;2024-01-15T13:04:39;2.60;99.90
5128;DHT22;2582;48.770;9.190;2024-01-15T13:07:06;2.60;99.90
5128;DHT22;2582;48.770;9.190;2024-01-15T13:09:33;2.80;99.90
5128;DHT22;2582;48.770;9.190;2024-01-15T13:11:58;2.80;99.90
5128;DHT22;2582;48.770;9.190;2024-01-15T13:14:24;2.90;99.90
5128;DHT22;2582;48.770;9.190;2024-01-15T13:16:50;3.00;99.90
5128;DHT22;2582;48.770;9.190;2024-01-15T13:19:15;3.00;99.90
5128;DHT22;2582;48.770;9.190;2024-01-15T13:21:41;2.90;99.90
5128;DHT22;2582;48.770;9.190;2024-01-15T13:24:07;2.80;99.90
5128;DHT22;2582;48.770;9.190;2024-01-15T13:26:36;2.80;99.90
5128;DHT22;2582;48.770;9.190;2024-01-15T13:29:02;2.80;99.90
5128;DHT22;2582;48.770;9.190;2024-01-15T13:31:32;2.60;99.90
5128;DHT22;2582;48.770;9.190;2024-01-15T13:33:57;2.60;99.90
5128;DHT22;2582;48.770;9.190;2024-01-15T13:36:24;2.60;99.90
5128;DHT22;2582;48.770;9.190;2024-01-15T13:38:53;2.70;99.90
5128;DHT22;2582;48.770;9.190;2024-01-15T13:41:22;2.70;99.90
5128;DHT22;2582;48.770;9.190;2024-01-15T13:43:53;2.80;99.90
5128;DHT22;2582;48.770;9.190;2024-01-15T13:46:19;2.90;99.90
5128;DHT22;2582;48.770;9.190;2024-01-15T13:48:45;2.80;99.90
5128;DHT22;2582;48.770;9.190;2024-01-15T13:51:11;2.80;99.90
5128;DHT22;2582;48.770;9.190;2024-01-15T13:53:39;2.90;99.90
5128;DHT22;2582;48.770;9.190;2024-01-15T13:56:06;2.70;99.90
5128;DHT22;2582;48.770;9.190;2024-01-15T13:58:32;2.70;99.90
5128;DHT22;2582;48.770;9.190;2024-01-15T14:00:58;2.80;99.90
5128;DHT22;2582;48.770;9.190;2024-01-15T14:03:24;2.80;99.90
5128;DHT22;2582;48.770;9.190;2024-01-15T14:05:51;2.80;99.90
5128;DHT22;2582;48.770;9.190;2024-01-15T14:08:17;2.90;99.90
5128;DHT22;2582;48.770;9.190;2024-01-15T14:10:42;2.90;99.90
5128;DHT22;2582;48.770;9.190;2024-01-15T14:13:08;2.90;99.90
5128;DHT22;2582;48.770;9.190;2024-01-15T14:15:34;2.90;99.90
5128;DHT22;2582;48.770;9.190;2024-01-15T14:17:59;2.80;99.90
5128;DHT22;2582;48.770;9.190;2024-01-15T14:20:26;2.90;99.90
5128;DHT22;2582;48.770;9.190;2024-01-15T14:22:52;2.90;99.90
5128;DHT22;2582;48.770;9.190;2024-01-15T14:25:18;3.00;99.90
5128;DHT22;2582;48.770;9.190;2024-01-15T14:27:44;3.10;99.90
5128;DHT22;2582;48.770;9.190;2024-01-15T14:30:09;2.90;99.90
5128;DHT22;2582;48.770;9.190;2024-01-15T14:32:35;2.70;99.90
5128;DHT22;2582;48.770;9.190;2024-01-15T14:35:01;2.70;99.90
5128;DHT22;2582;48.770;9.190;2024-01-15T14:37:28;2.50;99.90
5128;DHT22;2582;48.770;9.190;2024-01-15T14:39:54;2.50;99.90
5128;DHT22;2582;48.770;9.190;2024-01-15T14:42:19;2.40;99.90
5128;DHT22;2582;48.770;9.190;2024-01-15T14:44:45;2.40;99.90
5128;DHT22;2582;48.770;9.190;2024-01-15T14:47:10;2.40;99.90
5128;DHT22;2582;48.770;9.190;2024-01-15T14:49:36;2.40;99.90
5128;DHT22;2582;48.770;9.190;2024-01-15T14:52:02;2.40;99.90
5128;DHT22;2582;48.770;9.190;2024-01-15T14:54:28;2.50;99.90
5128;DHT22;2582;48.770;9.190;2024-01-15T14:56:54;2.40;99.90
5128;DHT22;2582;48.770;9.190;2024-01-15T14:59:20;2.30;99.90
5128;DHT22;2582;48.770;9.190;2024-01-15T15:01:45;2.30;99.90
5128;DHT22;2582;48.770;9.190;2024-01-15T15:04:11;2.20;99.90
5128;DHT22;2582;48.770;9.190;2024-01-15T15:06:37;2.20;99.90
5128;DHT22;2582;48.770;9.190;2024-01-15T15:09:03;2.20;99.90
5128;DHT22;2582;48.770;9.190;2024-01-15T15:11:34;2.10;99.90
5128;DHT22;2582;48.770;9.190;2024-01-15T15:14:00;2.10;99.90
5128;DHT22;2582;48.770;9.190;2024-01-15T15:16:26;2.10;99.90
5128;DHT22;2582;48.770;9.190;2024-01-15T15:18:53;2.10;99.90
5128;DHT22;2582;48.770;9.190;2024-01-15T15:21:20;2.20;99.90
5128;DHT22;2582;48.770;9.190;2024-01-15T15:23:45;2.40;99.90
5128;DHT22;2582;48.770;9.190;2024-01-15T15:26:12;2.40;99.90
5128;DHT22;2582;48.770;9.190;2024-01-15T15:28:38;2.30;99.90
5128;DHT22;2582;48.770;9.190;2024-01-15T15:31:05;2.40;99.90
5128;DHT22;2582;48.770;9.190;2024-01-15T15:33:33;2.40;99.90
5128;DHT22;2582;48.770;9.190;2024-01-15T15:35:59;2.10;99.90
5128;DHT22;2582;48.770;9.190;2024-01-15T15:38:33;2.20;99.90
5128;DHT22;2582;48.770;9.190;2024-01-15T15:40:58;2.10;99.90
5128;DHT22;2582;48.770;9.190;2024-01-15T15:43:28;2.30;99.90
5128;DHT22;2582;48.770;9.190;2024-01-15T15:45:53;2.30;99.90
5128;DHT22;2582;48.770;9.190;2024-01-15T15:48:19;2.30;99.90
5128;DHT22;2582;48.770;9.190;2024-01-15T15:50:44;2.30;99.90
5128;DHT22;2582;48.770;9.190;2024-01-15T15:53:11;2.40;99.90
5128;DHT22;2582;48.770;9.190;2024-01-15T15:55:37;2.30;99.90
5128;DHT22;2582;48.770;9.190;2024-01-15T15:58:04;2.30;99.90
5128;DHT22;2582;48.770;9.190;2024-01-15T16:00:30;2.30;99.90
5128;DHT22;2582;48.770;9.190;2024-01-15T16:02:56;2.30;99.90
5128;DHT22;2582;48.770;9.190;2024-01-15T16:05:21;2.30;99.90
5128;DHT22;2582;48.770;9.190;2024-01-15T16:07:47;2.50;99.90
5128;DHT22;2582;48.770;9.190;2024-01-15T16:10:13;2.40;99.90
5128;DHT22;2582;48.770;9.190;2024-01-15T16:12:40;2.40;99.90
5128;DHT22;2582;48.770;9.190;2024-01-15T16:15:26;2.50;99.90
5128;DHT22;2582;48.770;9.190;2024-01-15T16:17:53;2.40;99.90